createdAt,value
2022-12-11T00:00:52.207Z,13.9
2022-12-11T00:01:54.614Z,17.9
2022-12-11T00:03:56.093Z,17.5
2022-12-11T00:05:57.591Z,15.8
2022-12-11T00:07:59.229Z,14.8
2022-12-11T00:10:03.881Z,19.1
2022-12-11T00:12:05.381Z,14.7
2022-12-11T00:14:06.901Z,14.2
2022-12-11T00:16:08.514Z,14.1
2022-12-11T00:18:09.936Z,16.1
2022-12-11T00:20:11.448Z,15.6
2022-12-11T00:22:12.951Z,16.5
2022-12-11T00:24:17.706Z,18.3
2022-12-11T00:26:19.230Z,15
2022-12-11T00:28:20.740Z,15.4
2022-12-11T00:30:22.246Z,14
2022-12-11T00:32:23.745Z,17.7
2022-12-11T00:34:25.282Z,18.7
2022-12-11T00:36:26.807Z,16.2
2022-12-11T00:38:31.549Z,16.4
2022-12-11T00:40:33.108Z,16
2022-12-11T00:42:34.555Z,16.3
2022-12-11T00:44:36.079Z,14.5
2022-12-11T00:46:37.614Z,16
2022-12-11T00:48:39.126Z,16.8
2022-12-11T00:50:40.606Z,15.7
2022-12-11T00:52:45.382Z,16.5
2022-12-11T00:54:46.882Z,17.7
2022-12-11T00:56:48.410Z,18.5
2022-12-11T01:01:53.800Z,18.5
2022-12-11T01:03:55.325Z,16.6
2022-12-11T01:10:03.109Z,18.7
2022-12-11T01:12:04.602Z,19.7
2022-12-11T01:14:06.104Z,15.3
2022-12-11T01:16:07.639Z,17.6
2022-12-11T01:18:09.165Z,17.5
2022-12-11T01:20:13.914Z,17.8
2022-12-11T01:22:15.437Z,18.4
2022-12-11T01:24:16.930Z,15.3
2022-12-11T01:26:18.477Z,19.4
2022-12-11T01:28:19.988Z,16.9
2022-12-11T01:30:21.479Z,17
2022-12-11T01:32:23.006Z,19
2022-12-11T01:34:27.771Z,17.3
2022-12-11T01:36:29.274Z,18.4
2022-12-11T01:38:30.812Z,18.7
2022-12-11T01:42:33.818Z,17.1
2022-12-11T01:44:35.368Z,18.9
2022-12-11T01:46:36.899Z,17.2
2022-12-11T01:52:44.710Z,16.3
2022-12-11T01:55:13.341Z,16.9
2022-12-11T01:57:14.815Z,18.2
2022-12-11T01:59:16.364Z,19.5
2022-12-11T02:01:21.151Z,23
2022-12-11T02:03:22.608Z,16.5
2022-12-11T02:05:24.151Z,16.2
2022-12-11T02:07:25.716Z,17.1
2022-12-11T02:09:27.210Z,18.9
2022-12-11T02:11:28.752Z,15
2022-12-11T02:13:30.271Z,15.9
2022-12-11T02:15:35.037Z,17.5
2022-12-11T02:17:36.575Z,16.8
2022-12-11T02:19:38.089Z,15.7
2022-12-11T02:21:39.614Z,14.9
2022-12-11T02:23:41.143Z,15.4
2022-12-11T02:25:42.680Z,17.1
2022-12-11T02:27:44.189Z,15.3
2022-12-11T02:29:48.975Z,16.5
2022-12-11T02:31:50.574Z,15.1
2022-12-11T02:33:52.025Z,15.4
2022-12-11T02:35:53.563Z,17.1
2022-12-11T02:37:55.079Z,15.9
2022-12-11T02:39:56.604Z,14.9
2022-12-11T02:46:04.513Z,14.7
2022-12-11T02:51:09.876Z,16
2022-12-11T02:53:11.411Z,15.5
2022-12-11T02:55:13.269Z,15.6
2022-12-11T02:57:17.700Z,17
2022-12-11T02:59:19.237Z,12.8
2022-12-11T03:01:20.800Z,16.1
2022-12-11T03:05:23.821Z,13.6
2022-12-11T03:07:25.355Z,15.7
2022-12-11T03:09:26.898Z,12.3
2022-12-11T03:17:36.254Z,15.6
2022-12-11T03:19:37.785Z,16.4
2022-12-11T03:21:39.312Z,15.1
2022-12-11T03:23:40.872Z,17.1
2022-12-11T03:25:45.657Z,15.6
2022-12-11T03:27:47.160Z,14.9
2022-12-11T03:29:48.674Z,18
2022-12-11T03:31:50.214Z,15.5
2022-12-11T03:33:51.759Z,15.4
2022-12-11T03:35:53.272Z,15.6
2022-12-11T03:37:54.799Z,17
2022-12-11T03:39:59.557Z,16.8
2022-12-11T03:42:01.075Z,13.8
2022-12-11T03:44:02.626Z,18.5
2022-12-11T03:45:05.009Z,16.6
2022-12-11T03:47:06.528Z,14.7
2022-12-11T03:49:08.058Z,17.4
2022-12-11T03:51:09.584Z,15.7
2022-12-11T03:53:14.379Z,14.7
2022-12-11T03:55:15.897Z,15.7
2022-12-11T03:57:17.424Z,17.8
2022-12-11T03:59:19.001Z,15.7
2022-12-11T04:01:20.555Z,15
2022-12-11T04:07:28.412Z,16.3
2022-12-11T04:15:34.559Z,15.3
2022-12-11T04:23:43.903Z,14.5
2022-12-11T04:27:48.485Z,16.1
2022-12-11T04:29:50.034Z,18
2022-12-11T04:31:51.568Z,17.5
2022-12-11T04:33:53.118Z,13.5
2022-12-11T04:35:57.866Z,18.7
2022-12-11T04:37:59.434Z,15.9
2022-12-11T04:40:00.978Z,19.4
2022-12-11T04:41:03.350Z,16.8
2022-12-11T04:43:04.873Z,15.2
2022-12-11T04:45:06.391Z,13.9
2022-12-11T04:47:07.953Z,16.4
2022-12-11T04:49:12.723Z,16.7
2022-12-11T04:51:14.262Z,16.2
2022-12-11T04:55:17.346Z,15.7
2022-12-11T04:57:18.874Z,14.3
2022-12-11T04:59:20.390Z,15.8
2022-12-11T05:01:22.016Z,17.4
2022-12-11T05:03:26.734Z,16.9
2022-12-11T05:07:29.791Z,18.4
2022-12-11T05:09:31.342Z,16.2
2022-12-11T05:11:32.890Z,18.4
2022-12-11T05:13:34.419Z,16.5
2022-12-11T05:15:35.921Z,15
2022-12-11T05:17:40.704Z,20.2
2022-12-11T05:19:42.256Z,14
2022-12-11T05:21:43.787Z,15.6
2022-12-11T05:23:45.322Z,17.5
2022-12-11T05:25:46.853Z,18.9
2022-12-11T05:27:48.381Z,17
2022-12-11T05:29:51.686Z,17.6
2022-12-11T05:31:54.715Z,18.8
2022-12-11T05:33:56.238Z,16.9
2022-12-11T05:35:57.796Z,16.7
2022-12-11T05:40:27.926Z,16.8
2022-12-11T05:42:29.464Z,17.3
2022-12-11T05:44:34.225Z,18.3
2022-12-11T05:46:35.841Z,16.5
2022-12-11T05:48:37.324Z,18.4
2022-12-11T05:50:38.874Z,14.9
2022-12-11T05:52:40.401Z,17.9
2022-12-11T05:54:41.951Z,19.9
2022-12-11T05:56:43.477Z,18.6
2022-12-11T05:58:48.282Z,17.9
2022-12-11T06:00:49.806Z,19.4
2022-12-11T06:02:51.490Z,17.5
2022-12-11T06:04:52.896Z,17.3
2022-12-11T06:06:54.441Z,16.6
2022-12-11T06:08:55.999Z,17
2022-12-11T06:10:57.527Z,17.4
2022-12-11T06:13:02.299Z,17.5
2022-12-11T06:15:03.838Z,17.9
2022-12-11T06:17:05.399Z,17.5
2022-12-11T06:19:06.954Z,16.8
2022-12-11T06:21:08.483Z,18.2
2022-12-11T06:25:11.736Z,15.2
2022-12-11T06:27:16.342Z,20.4
2022-12-11T06:29:17.882Z,15.7
2022-12-11T06:32:21.810Z,19.6
2022-12-11T06:36:24.900Z,19.4
2022-12-11T06:38:26.436Z,16.4
2022-12-11T06:40:31.226Z,17.4
2022-12-11T06:42:32.765Z,19.4
2022-12-11T06:44:34.299Z,17.7
2022-12-11T06:46:35.874Z,17.9
2022-12-11T06:48:37.397Z,17.3
2022-12-11T06:50:38.948Z,14.3
2022-12-11T06:52:40.478Z,16
2022-12-11T06:54:45.264Z,17.3
2022-12-11T06:56:46.832Z,18
2022-12-11T06:58:48.406Z,17.8
2022-12-11T07:00:49.990Z,15.9
2022-12-11T07:02:51.464Z,17
2022-12-11T07:04:55.298Z,15.2
2022-12-11T07:06:54.562Z,17.7
2022-12-11T07:15:03.981Z,16.3
2022-12-11T07:17:05.569Z,14.6
2022-12-11T07:19:07.115Z,16.4
2022-12-11T07:25:14.991Z,17.7
2022-12-11T07:27:16.553Z,16.7
2022-12-11T07:36:28.398Z,18.2
2022-12-11T07:44:34.613Z,18.3
2022-12-11T07:46:36.132Z,16.3
2022-12-11T07:48:37.702Z,18.1
2022-12-11T07:50:42.450Z,16.6
2022-12-11T07:52:44.005Z,16
2022-12-11T07:54:45.573Z,15.3
2022-12-11T07:56:52.768Z,15.5
2022-12-11T08:00:50.236Z,16.8
2022-12-11T08:02:51.775Z,14.2
2022-12-11T08:04:56.560Z,16.7
2022-12-11T08:06:58.100Z,16.3
2022-12-11T08:08:59.626Z,16
2022-12-11T08:11:01.157Z,16.4
2022-12-11T08:13:02.700Z,15
2022-12-11T08:15:04.281Z,14.4
2022-12-11T08:17:05.854Z,17.7
2022-12-11T08:19:10.598Z,15.2
2022-12-11T08:21:12.145Z,17.6
2022-12-11T08:23:13.719Z,19
2022-12-11T08:24:16.106Z,17.1
2022-12-11T08:26:17.648Z,18.2
2022-12-11T08:28:19.190Z,16.9
2022-12-11T08:32:25.535Z,18.1
2022-12-11T08:34:27.109Z,17.6
2022-12-11T08:36:28.646Z,16.4
2022-12-11T08:38:30.167Z,16.7
2022-12-11T08:40:31.706Z,18.1
2022-12-11T08:42:33.284Z,17.3
2022-12-11T08:44:34.816Z,16.8
2022-12-11T08:46:39.577Z,16.4
2022-12-11T08:48:41.128Z,18.2
2022-12-11T08:50:42.710Z,17.1
2022-12-11T08:52:44.232Z,15.4
2022-12-11T08:54:45.775Z,16.1
2022-12-11T08:56:47.238Z,14.5
2022-12-11T08:58:48.789Z,14.7
2022-12-11T09:00:53.629Z,14.7
2022-12-11T09:02:55.219Z,14.2
2022-12-11T09:04:56.657Z,13.9
2022-12-11T09:06:58.178Z,14.1
2022-12-11T09:08:59.751Z,13.3
2022-12-11T09:11:01.295Z,13.5
2022-12-11T09:13:02.817Z,15
2022-12-11T09:15:07.575Z,15.3
2022-12-11T09:17:09.147Z,13.9
2022-12-11T09:19:10.679Z,14.3
2022-12-11T09:21:39.278Z,11.4
2022-12-11T09:23:40.806Z,13.2
2022-12-11T09:25:42.319Z,14.6
2022-12-11T09:29:48.677Z,13.8
2022-12-11T09:31:50.201Z,13.5
2022-12-11T09:33:51.732Z,13.7
2022-12-11T09:39:56.363Z,14.1
2022-12-11T09:42:01.139Z,13
2022-12-11T09:44:02.665Z,11.7
2022-12-11T09:46:04.228Z,12.5
2022-12-11T09:48:05.720Z,12.9
2022-12-11T09:50:07.272Z,9.8
2022-12-11T09:52:08.802Z,12
2022-12-11T09:54:10.363Z,10.6
2022-12-11T09:56:15.148Z,11.2
2022-12-11T10:00:18.337Z,11.8
2022-12-11T10:02:19.846Z,12
2022-12-11T10:04:21.275Z,11.1
2022-12-11T10:06:22.817Z,10.6
2022-12-11T10:08:24.395Z,10.2
2022-12-11T10:10:29.132Z,11.1
2022-12-11T10:12:30.670Z,10.8
2022-12-11T10:14:32.281Z,9
2022-12-11T10:15:36.248Z,11.3
2022-12-11T10:17:37.627Z,10.5
2022-12-11T10:19:39.205Z,10.3
2022-12-11T10:21:40.721Z,10.1
2022-12-11T10:23:45.496Z,10.2
2022-12-11T10:25:47.024Z,10.3
2022-12-11T10:27:48.568Z,10.3
2022-12-11T10:31:51.655Z,10.8
2022-12-11T10:33:53.181Z,12.2
2022-12-11T10:35:54.742Z,11.1
2022-12-11T10:37:59.530Z,8.7
2022-12-11T10:40:01.077Z,11.4
2022-12-11T10:42:02.589Z,11.4
2022-12-11T10:44:04.127Z,11.7
2022-12-11T10:46:05.838Z,10.2
2022-12-11T10:50:08.783Z,11.2
2022-12-11T10:52:13.553Z,10.8
2022-12-11T10:54:15.098Z,10.8
2022-12-11T10:58:18.187Z,9.8
2022-12-11T11:00:19.717Z,10.9
2022-12-11T11:02:21.327Z,10.8
2022-12-11T11:04:22.816Z,11.2
2022-12-11T11:06:27.593Z,11.2
2022-12-11T11:08:29.158Z,10.2
2022-12-11T11:10:30.655Z,9.6
2022-12-11T11:11:34.172Z,9.4
2022-12-11T11:13:34.597Z,8.7
2022-12-11T11:15:36.172Z,9.8
2022-12-11T11:17:46.120Z,9.7
2022-12-11T11:25:47.185Z,8.8
2022-12-11T11:27:48.725Z,9.3
2022-12-11T11:29:53.234Z,11.7
2022-12-11T11:31:51.811Z,10.1
2022-12-11T11:33:56.650Z,13.5
2022-12-11T11:35:58.190Z,11.1
2022-12-11T11:37:59.739Z,8.7
2022-12-11T11:40:01.263Z,9.6
2022-12-11T11:42:02.812Z,8.7
2022-12-11T11:44:04.414Z,8.8
2022-12-11T11:46:05.994Z,8.7
2022-12-11T11:48:11.628Z,13.8
2022-12-11T11:50:12.272Z,10.1
2022-12-11T11:52:13.839Z,9.8
2022-12-11T11:54:15.396Z,8.9
2022-12-11T11:56:16.926Z,9.7
2022-12-11T11:58:18.481Z,9.9
2022-12-11T12:00:20.039Z,9.7
2022-12-11T12:02:24.879Z,9.6
2022-12-11T12:04:26.402Z,7.9
2022-12-11T12:06:27.977Z,9.6
2022-12-11T12:07:30.381Z,9.3
2022-12-11T12:09:31.935Z,10.7
2022-12-11T12:11:33.469Z,11.5
2022-12-11T12:13:49.912Z,11.2
2022-12-11T12:15:39.856Z,9.1
2022-12-11T12:17:41.380Z,10.6
2022-12-11T12:19:42.966Z,10.6
2022-12-11T12:21:44.529Z,8.6
2022-12-11T12:23:46.086Z,10.7
2022-12-11T12:25:47.662Z,10.1
2022-12-11T12:27:52.819Z,9.3
2022-12-11T12:29:53.990Z,9.5
2022-12-11T12:33:57.099Z,10.8
2022-12-11T12:36:02.140Z,9.6
2022-12-11T12:38:00.311Z,9.8
2022-12-11T12:40:01.826Z,14.3
2022-12-11T12:42:07.550Z,11
2022-12-11T12:44:08.235Z,9.3
2022-12-11T12:46:09.731Z,11
2022-12-11T12:48:11.236Z,13.8
2022-12-11T12:50:12.809Z,11.2
2022-12-11T12:52:14.375Z,10
2022-12-11T12:54:15.935Z,10.4
2022-12-11T12:56:17.487Z,10.7
2022-12-11T12:58:22.264Z,13.3
2022-12-11T13:00:23.834Z,10.9
2022-12-11T13:02:25.427Z,10.8
2022-12-11T13:04:56.428Z,13.6
2022-12-11T13:06:55.477Z,10.4
2022-12-11T13:08:57.045Z,12.3
2022-12-11T13:11:01.854Z,12.7
2022-12-11T13:13:03.420Z,12.7
2022-12-11T13:15:05.080Z,11.6
2022-12-11T13:17:06.503Z,11
2022-12-11T13:19:08.078Z,11.5
2022-12-11T13:21:09.632Z,11.5
2022-12-11T13:23:11.191Z,14.2
2022-12-11T13:25:15.959Z,11.3
2022-12-11T13:27:17.529Z,13.2
2022-12-11T13:29:19.092Z,13.9
2022-12-11T13:31:20.739Z,10.8
2022-12-11T13:33:22.240Z,11.4
2022-12-11T13:35:23.763Z,14.2
2022-12-11T13:37:25.311Z,14.9
2022-12-11T13:39:30.138Z,22.5
2022-12-11T13:41:31.667Z,14.6
2022-12-11T13:43:33.238Z,13.8
2022-12-11T13:45:34.830Z,13
2022-12-11T13:47:36.341Z,12.1
2022-12-11T13:49:37.911Z,14
2022-12-11T13:51:39.457Z,12.6
2022-12-11T13:53:44.242Z,13
2022-12-11T13:55:45.781Z,12.5
2022-12-11T13:57:47.345Z,13.2
2022-12-11T13:58:49.763Z,14
2022-12-11T14:00:51.358Z,12.2
2022-12-11T14:02:52.909Z,13.2
2022-12-11T14:04:54.429Z,15.1
2022-12-11T14:06:59.221Z,12.3
2022-12-11T14:09:00.772Z,14.2
2022-12-11T14:11:02.342Z,12.3
2022-12-11T14:17:06.977Z,14.3
2022-12-11T14:19:08.532Z,13
2022-12-11T14:21:13.343Z,14.4
2022-12-11T14:37:28.981Z,14
2022-12-11T14:39:30.537Z,11.9
2022-12-11T14:41:32.076Z,12.1
2022-12-11T14:45:35.220Z,14.1
2022-12-11T14:47:36.728Z,12.6
2022-12-11T14:49:41.523Z,14.9
2022-12-11T14:51:43.043Z,14.1
2022-12-11T14:53:44.622Z,15.2
2022-12-11T14:54:46.983Z,12.6
2022-12-11T14:56:48.553Z,14.3
2022-12-11T14:58:50.122Z,11.8
2022-12-11T15:00:51.623Z,13.8
2022-12-11T15:02:56.411Z,14.2
2022-12-11T15:04:57.971Z,12.8
2022-12-11T15:06:59.517Z,12.5
2022-12-11T15:11:02.596Z,13.3
2022-12-11T15:13:04.140Z,13.6
2022-12-11T15:15:05.697Z,12
2022-12-11T15:19:12.005Z,13.8
2022-12-11T15:21:13.540Z,13.1
2022-12-11T15:23:18.654Z,12.5
2022-12-11T15:25:16.633Z,28.8
2022-12-11T15:27:18.198Z,13.2
2022-12-11T15:29:19.730Z,12.5
2022-12-11T15:31:24.503Z,12.9
2022-12-11T15:33:28.469Z,16.8
2022-12-11T15:39:30.673Z,13.8
2022-12-11T15:41:32.226Z,12.8
2022-12-11T15:43:33.780Z,13.1
2022-12-11T15:45:38.542Z,14.1
2022-12-11T15:47:40.098Z,13.6
2022-12-11T15:49:41.630Z,12.9
2022-12-11T15:50:44.025Z,16.5
2022-12-11T15:52:45.577Z,15.2
2022-12-11T15:54:47.139Z,11.8
2022-12-11T15:56:48.665Z,13.7
2022-12-11T15:58:53.451Z,13.9
2022-12-11T16:00:54.969Z,14.8
2022-12-11T16:02:56.627Z,15.9
2022-12-11T16:04:58.080Z,14
2022-12-11T16:07:01.180Z,12.8
2022-12-11T16:09:02.698Z,13
2022-12-11T16:13:09.029Z,13.6
2022-12-11T16:15:11.064Z,14.4
2022-12-11T16:17:12.154Z,13.7
2022-12-11T16:19:13.705Z,18
2022-12-11T16:21:19.854Z,15
2022-12-11T16:23:16.840Z,18.7
2022-12-11T16:25:18.387Z,14.7
2022-12-11T16:27:23.479Z,15.6
2022-12-11T16:35:29.397Z,14.4
2022-12-11T16:37:30.959Z,12.7
2022-12-11T16:43:38.894Z,12.1
2022-12-11T16:45:40.433Z,15.5
2022-12-11T16:50:10.627Z,14.3
2022-12-11T16:52:13.624Z,12.2
2022-12-11T16:54:16.958Z,11.9
2022-12-11T16:56:18.508Z,12.8
2022-12-11T16:58:20.069Z,13.1
2022-12-11T17:00:21.625Z,11
2022-12-11T17:02:23.268Z,12.8
2022-12-11T17:04:24.741Z,11.4
2022-12-11T17:08:31.140Z,14
2022-12-11T17:12:34.207Z,13.7
2022-12-11T17:20:40.468Z,12.3
2022-12-11T17:22:45.206Z,14.1
2022-12-11T17:28:49.870Z,12.2
2022-12-11T17:30:51.461Z,12.1
2022-12-11T17:32:52.970Z,12.4
2022-12-11T17:36:59.336Z,12.8
2022-12-11T17:39:00.876Z,11.3
2022-12-11T17:41:02.413Z,14.9
2022-12-11T17:42:04.817Z,13.6
2022-12-11T17:44:06.361Z,13.5
2022-12-11T17:48:09.484Z,12.6
2022-12-11T17:50:14.251Z,13.2
2022-12-11T17:52:15.792Z,14.9
2022-12-11T17:54:17.330Z,14.3
2022-12-11T17:56:18.893Z,14.3
2022-12-11T17:58:20.456Z,12.2
2022-12-11T18:00:21.984Z,9.1
2022-12-11T18:04:28.338Z,11.7
2022-12-11T18:06:29.868Z,13.3
2022-12-11T18:08:31.467Z,13.3
2022-12-11T18:10:32.958Z,14.1
2022-12-11T18:12:34.500Z,12.9
2022-12-11T18:14:36.046Z,12.9
2022-12-11T18:16:37.616Z,12.1
2022-12-11T18:18:42.353Z,11.9
2022-12-11T18:20:43.895Z,12.9
2022-12-11T18:22:45.443Z,12.6
2022-12-11T18:24:47.001Z,13.6
2022-12-11T18:26:48.545Z,12.7
2022-12-11T18:28:50.077Z,15.4
2022-12-11T18:30:51.775Z,14.4
2022-12-11T18:34:57.934Z,13
2022-12-11T18:36:59.481Z,15.5
2022-12-11T18:38:01.866Z,13.9
2022-12-11T18:40:03.399Z,13.9
2022-12-11T18:42:31.841Z,12.5
2022-12-11T18:46:11.276Z,12
2022-12-11T18:50:14.340Z,13.8
2022-12-11T18:52:15.860Z,14.7
2022-12-11T18:54:17.395Z,12.5
2022-12-11T18:56:18.936Z,14.5
2022-12-11T18:58:20.461Z,12.3
2022-12-11T19:00:25.270Z,12.2
2022-12-11T19:02:26.843Z,14.7
2022-12-11T19:04:28.319Z,12.1
2022-12-11T19:06:29.829Z,14.2
2022-12-11T19:08:31.436Z,14.3
2022-12-11T19:10:32.886Z,14.7
2022-12-11T19:12:34.436Z,13.9
2022-12-11T19:16:40.736Z,15
2022-12-11T19:18:42.255Z,13.5
2022-12-11T19:20:49.814Z,14.4
2022-12-11T19:22:45.353Z,12.7
2022-12-11T19:24:46.878Z,13.8
2022-12-11T19:26:48.418Z,12.9
2022-12-11T19:33:58.651Z,13.9
2022-12-11T19:36:00.173Z,13
2022-12-11T19:38:01.694Z,15.9
2022-12-11T19:40:03.235Z,15.5
2022-12-11T19:42:08.011Z,17.9
2022-12-11T19:44:09.584Z,17.4
2022-12-11T19:46:11.076Z,15.2
2022-12-11T19:48:12.645Z,13.1
2022-12-11T19:50:14.147Z,14.4
2022-12-11T19:52:15.702Z,15.2
2022-12-11T19:54:17.233Z,15
2022-12-11T19:56:21.991Z,14.9
2022-12-11T19:58:23.521Z,13.8
2022-12-11T20:00:25.059Z,14
2022-12-11T20:02:26.655Z,15.3
2022-12-11T20:04:28.133Z,13.7
2022-12-11T20:06:29.680Z,13.5
2022-12-11T20:08:44.246Z,13.9
2022-12-11T20:10:35.998Z,13.6
2022-12-11T20:12:37.521Z,14.6
2022-12-11T20:14:39.029Z,12.2
2022-12-11T20:17:09.400Z,14.2
2022-12-11T20:18:42.108Z,13.9
2022-12-11T20:20:43.660Z,12.8
2022-12-11T20:22:45.176Z,14.4
2022-12-11T20:24:49.933Z,13.4
2022-12-11T20:26:51.466Z,14.5
2022-12-11T20:31:21.672Z,15.2
2022-12-11T20:33:23.115Z,14.5
2022-12-11T20:35:24.648Z,14.8
2022-12-11T20:37:29.430Z,14.2
2022-12-11T20:39:30.970Z,15.1
2022-12-11T20:41:32.519Z,11.8
2022-12-11T20:43:34.035Z,11.8
2022-12-11T20:47:37.127Z,13.3
2022-12-11T20:49:38.630Z,14.6
2022-12-11T20:57:48.002Z,13
2022-12-11T20:59:49.587Z,12.9
2022-12-11T21:01:51.149Z,13.8
2022-12-11T21:03:52.609Z,15.5
2022-12-11T21:05:57.372Z,12.5
2022-12-11T21:07:59.005Z,14.3
2022-12-11T21:10:00.459Z,13.7
2022-12-11T21:12:01.972Z,13.5
2022-12-11T21:14:03.537Z,12.9
2022-12-11T21:16:05.121Z,13.6
2022-12-11T21:18:06.584Z,14.3
2022-12-11T21:20:11.362Z,13.5
2022-12-11T21:22:12.893Z,12.1
2022-12-11T21:24:14.450Z,12.3
2022-12-11T21:25:16.835Z,13
2022-12-11T21:27:18.382Z,12.5
2022-12-11T21:29:19.890Z,14.7
2022-12-11T21:31:21.496Z,12.8
2022-12-11T21:33:26.211Z,15.1
2022-12-11T21:35:27.774Z,13.9
2022-12-11T21:37:29.288Z,12.9
2022-12-11T21:39:36.088Z,13
2022-12-11T21:43:33.868Z,12.9
2022-12-11T21:47:40.192Z,13.8
2022-12-11T21:49:41.728Z,13.7
2022-12-11T21:51:46.761Z,13.4
2022-12-11T21:53:44.794Z,11.2
2022-12-11T21:55:46.337Z,13.4
2022-12-11T21:57:49.427Z,13
2022-12-11T21:59:50.939Z,13.7
2022-12-11T22:01:55.778Z,13
2022-12-11T22:03:57.326Z,11.2
2022-12-11T22:05:58.931Z,12.5
2022-12-11T22:08:00.393Z,12.3
2022-12-11T22:10:01.854Z,12.6
2022-12-11T22:12:03.392Z,12.4
2022-12-11T22:16:09.739Z,12.3
2022-12-11T22:18:11.211Z,12.6
2022-12-11T22:20:12.749Z,13.1
2022-12-11T22:21:15.129Z,12.3
2022-12-11T22:23:16.697Z,13.5
2022-12-11T22:25:18.227Z,12.5
2022-12-11T22:27:23.688Z,13.9
2022-12-11T22:29:24.515Z,13.6
2022-12-11T22:31:26.070Z,13.6
2022-12-11T22:33:27.619Z,12
2022-12-11T22:35:29.137Z,12.4
2022-12-11T22:37:30.656Z,12.1
2022-12-11T22:41:33.728Z,12.9
2022-12-11T22:43:38.503Z,13
2022-12-11T22:45:40.089Z,12.4
2022-12-11T22:47:41.583Z,12.5
2022-12-11T22:49:43.109Z,12.4
2022-12-11T22:51:44.647Z,12.7
2022-12-11T22:53:46.192Z,12.9
2022-12-11T22:55:47.696Z,12.7
2022-12-11T22:57:52.463Z,12.7
2022-12-11T22:59:54.011Z,10.3
2022-12-11T23:01:55.568Z,12.7
2022-12-11T23:03:57.093Z,12.9
2022-12-11T23:06:03.364Z,12.6
2022-12-11T23:08:00.327Z,10.6
2022-12-11T23:10:01.757Z,13.7
2022-12-11T23:12:06.441Z,11.3
2022-12-11T23:14:07.979Z,12.9
2022-12-11T23:16:09.511Z,12.6
2022-12-11T23:17:12.772Z,13.3
2022-12-11T23:19:14.263Z,13.2
2022-12-11T23:21:15.797Z,13.6
2022-12-11T23:23:17.357Z,13.9
2022-12-11T23:25:22.100Z,13.3
2022-12-11T23:27:23.633Z,13.4
2022-12-11T23:29:25.162Z,12.9
2022-12-11T23:31:26.762Z,12.8
2022-12-11T23:33:28.233Z,12.1
2022-12-11T23:35:29.736Z,12
2022-12-11T23:37:31.292Z,14.1
2022-12-11T23:41:37.592Z,12.7
2022-12-11T23:43:39.145Z,11.7
2022-12-11T23:45:40.632Z,11.9
2022-12-11T23:47:42.176Z,14.5
2022-12-11T23:49:43.710Z,12.8
2022-12-11T23:51:45.271Z,14.5
2022-12-11T23:53:49.997Z,11.8
2022-12-11T23:55:51.516Z,14
2022-12-11T23:57:53.057Z,12.9
2022-12-11T23:59:54.591Z,11.2
